Time;durP1;ratioP1;P1;durP2;ratioP2;P2;SDS_P1;SDS_P2;PMS_P1;PMS_P2;Temp;Humidity;BMP_temperature;BMP_pressure;BME280_temperature;BME280_humidity;BME280_pressure;Samples;Min_cycle;Max_cycle;Signal;HPM_P1;HPM_P2
2022/11/25 00:01:35;;;;;;;4.10;1.55;;;8.40;99.90;;;8.23;100.00;100682.19;5123602;29;20409;-84
2022/11/25 00:04:07;;;;;;;5.57;1.55;;;8.40;99.90;;;8.23;100.00;100682.19;5117060;29;20075;-84
2022/11/25 00:06:39;;;;;;;7.00;1.95;;;8.40;99.90;;;8.24;100.00;100681.34;5129574;29;20133;-84
2022/11/25 00:09:12;;;;;;;5.90;1.50;;;8.40;99.90;;;8.22;100.00;100675.22;5106496;29;20054;-83
2022/11/25 00:11:44;;;;;;;2.88;1.58;;;8.40;99.90;;;8.24;100.00;100670.09;5117548;29;20066;-84
2022/11/25 00:14:17;;;;;;;5.40;1.50;;;8.40;99.90;;;8.20;100.00;100676.84;5119340;29;20047;-85
2022/11/25 00:16:50;;;;;;;8.02;2.53;;;8.30;99.90;;;8.16;100.00;100662.88;5130550;29;20050;-85
2022/11/25 00:19:22;;;;;;;6.90;1.80;;;8.30;99.90;;;8.11;100.00;100671.28;5097359;28;20246;-84
2022/11/25 00:21:54;;;;;;;7.95;2.13;;;8.30;99.90;;;8.09;100.00;100671.22;5091664;29;20333;-83
2022/11/25 00:24:27;;;;;;;4.85;1.60;;;8.20;99.90;;;8.06;100.00;100673.66;5089132;29;20055;-84
2022/11/25 00:26:59;;;;;;;4.68;1.60;;;8.20;99.90;;;8.06;100.00;100672.78;5099229;29;20086;-83
2022/11/25 00:29:31;;;;;;;5.00;1.83;;;8.20;99.90;;;8.01;100.00;100664.78;5114797;29;20043;-84
2022/11/25 00:32:04;;;;;;;8.77;1.90;;;8.20;99.90;;;7.99;100.00;100660.38;5125072;29;20066;-84
2022/11/25 00:34:38;;;;;;;8.43;2.10;;;8.20;99.90;;;7.96;100.00;100662.84;5109923;29;20047;-84
2022/11/25 00:37:10;;;;;;;6.82;2.00;;;8.10;99.90;;;7.89;100.00;100654.78;5106955;29;20058;-83
2022/11/25 00:39:43;;;;;;;6.10;2.00;;;8.10;99.90;;;7.86;100.00;100658.94;5090467;29;20130;-84
2022/11/25 00:45:07;;;;;;;5.57;2.00;;;8.00;99.90;;;7.80;100.00;100633.59;5119325;29;20191;-83
2022/11/25 00:47:40;;;;;;;8.95;2.00;;;8.00;99.90;;;7.77;100.00;100628.31;5090399;29;20058;-83
2022/11/25 00:50:13;;;;;;;6.50;1.85;;;8.00;99.90;;;7.71;100.00;100638.41;5101764;29;20421;-83
2022/11/25 00:52:46;;;;;;;3.80;1.90;;;8.00;99.90;;;7.68;100.00;100633.06;5107087;29;20039;-84
2022/11/25 00:55:18;;;;;;;5.88;1.83;;;7.90;99.90;;;7.69;100.00;100624.47;5114623;29;20448;-83
2022/11/25 00:57:50;;;;;;;7.88;2.42;;;7.90;99.90;;;7.71;100.00;100625.44;5099266;29;20062;-84
2022/11/25 01:00:30;;;;;;;5.68;1.70;;;7.90;99.90;;;7.71;100.00;100617.66;5263634;28;20779;-70
2022/11/25 01:03:02;;;;;;;4.50;1.58;;;7.90;99.90;;;7.73;100.00;100626.38;5242680;28;20045;-69
2022/11/25 01:05:34;;;;;;;6.43;1.75;;;7.90;99.90;;;7.76;100.00;100612.66;5241357;28;20059;-70
2022/11/25 01:08:07;;;;;;;5.80;2.08;;;8.00;99.90;;;7.76;100.00;100605.78;5242929;28;20127;-70
2022/11/25 01:10:39;;;;;;;7.30;1.85;;;8.00;99.90;;;7.80;100.00;100601.59;5242630;28;20045;-71
2022/11/25 01:13:11;;;;;;;6.53;1.90;;;8.00;99.90;;;7.81;100.00;100604.25;5237058;28;20095;-69
2022/11/25 01:15:44;;;;;;;6.93;1.90;;;8.00;99.90;;;7.85;100.00;100606.16;5233980;28;20059;-69
2022/11/25 01:18:17;;;;;;;6.30;1.75;;;8.10;99.90;;;7.90;100.00;100608.97;5220464;28;20063;-70
2022/11/25 01:20:49;;;;;;;5.32;1.90;;;8.10;99.90;;;7.95;100.00;100612.59;5220757;28;20509;-72
2022/11/25 01:23:21;;;;;;;6.13;1.83;;;8.10;99.90;;;8.03;100.00;100611.25;5240444;28;20044;-69
2022/11/25 01:25:53;;;;;;;4.20;1.90;;;8.20;99.90;;;8.07;100.00;100620.91;5242454;28;20048;-70
2022/11/25 01:28:26;;;;;;;6.85;1.98;;;8.20;99.90;;;8.10;100.00;100621.06;5240735;28;20052;-70
2022/11/25 01:31:05;;;;;;;7.15;1.83;;;8.30;99.90;;;8.17;100.00;100630.00;5241000;28;20398;-70
2022/11/25 01:33:39;;;;;;;5.70;1.70;;;8.30;99.90;;;8.18;100.00;100621.38;5240632;28;20049;-71
2022/11/25 01:36:15;;;;;;;5.38;1.83;;;8.40;99.90;;;8.20;100.00;100622.31;5241025;28;20053;-70
2022/11/25 01:38:52;;;;;;;4.80;2.00;;;8.40;99.90;;;8.26;100.00;100619.97;5240616;28;20117;-69
2022/11/25 01:41:26;;;;;;;5.78;2.15;;;8.40;99.90;;;8.28;100.00;100615.75;5241095;28;20051;-70
2022/11/25 01:44:10;;;;;;;6.07;1.85;;;8.50;99.90;;;8.28;100.00;100623.53;5240542;28;20041;-70
2022/11/25 01:46:59;;;;;;;9.00;2.03;;;8.50;99.90;;;8.31;100.00;100623.66;5242366;28;20478;-70
2022/11/25 01:49:40;;;;;;;4.35;1.40;;;8.50;99.90;;;8.36;100.00;100623.88;5241746;28;20041;-71
2022/11/25 01:52:18;;;;;;;6.70;1.65;;;8.50;99.90;;;8.39;100.00;100627.47;5240718;28;20135;-70
2022/11/25 01:54:55;;;;;;;5.45;1.50;;;8.60;99.90;;;8.41;100.00;100623.25;5241770;28;20222;-70
2022/11/25 01:57:34;;;;;;;8.68;2.28;;;8.60;99.90;;;8.45;100.00;100620.75;5240308;28;20414;-71
2022/11/25 02:00:09;;;;;;;7.72;1.50;;;8.60;99.90;;;8.50;100.00;100616.66;5240402;28;20130;-69
2022/11/25 02:02:55;;;;;;;6.97;2.20;;;8.60;99.90;;;8.52;100.00;100602.88;5241769;28;20053;-69
2022/11/25 02:05:37;;;;;;;5.43;1.70;;;8.70;99.90;;;8.56;100.00;100603.91;5239878;28;20044;-69
2022/11/25 02:08:11;;;;;;;6.25;1.83;;;8.70;99.90;;;8.57;100.00;100600.47;5240379;28;20048;-69
2022/11/25 02:10:45;;;;;;;2.85;1.48;;;8.70;99.90;;;8.63;100.00;100600.72;5232267;28;20160;-69
2022/11/25 02:13:17;;;;;;;4.28;1.40;;;8.80;99.90;;;8.66;100.00;100603.44;5227849;28;20041;-71
2022/11/25 02:15:50;;;;;;;3.65;1.50;;;8.80;99.90;;;8.69;100.00;100611.34;5226138;28;20502;-72
2022/11/25 02:18:23;;;;;;;8.00;2.15;;;8.80;99.90;;;8.71;100.00;100599.31;5226296;28;20749;-69
2022/11/25 02:20:57;;;;;;;7.55;2.00;;;8.80;99.90;;;8.74;100.00;100589.03;5226021;28;20048;-70
2022/11/25 02:23:40;;;;;;;6.75;1.90;;;8.90;99.90;;;8.76;100.00;100587.38;5226028;28;20072;-69
2022/11/25 02:26:14;;;;;;;4.57;1.88;;;8.90;99.90;;;8.78;100.00;100590.03;5225868;28;20052;-70
2022/11/25 02:28:47;;;;;;;3.67;1.50;;;8.90;99.90;;;8.78;100.00;100590.03;5226263;28;20051;-70
2022/11/25 02:31:21;;;;;;;6.88;2.13;;;8.90;99.90;;;8.82;100.00;100582.41;5225976;28;20141;-70
2022/11/25 02:33:53;;;;;;;4.38;1.70;;;9.00;99.90;;;8.87;100.00;100585.22;5242536;28;20048;-69
2022/11/25 02:36:26;;;;;;;4.78;1.50;;;9.00;99.90;;;8.90;100.00;100591.38;5225806;28;20056;-70
2022/11/25 02:39:00;;;;;;;;;;;9.00;99.90;;;8.92;100.00;100581.03;5242862;28;20049;-71
2022/11/25 02:41:41;;;;;;;7.40;2.25;;;9.10;99.90;;;8.91;100.00;100559.34;5225811;28;20016;-70
2022/11/25 02:44:14;;;;;;;6.32;1.58;;;9.10;99.90;;;8.95;100.00;100553.47;5225726;28;20111;-70
2022/11/25 02:46:46;;;;;;;7.68;1.55;;;9.10;99.90;;;8.98;100.00;100555.28;5225748;28;20464;-69
2022/11/25 02:49:19;;;;;;;3.58;1.60;;;9.10;99.90;;;9.02;100.00;100564.97;5225831;28;20102;-70
2022/11/25 02:51:51;;;;;;;7.97;1.88;;;9.10;99.90;;;9.06;100.00;100561.63;5225881;28;20040;-71
2022/11/25 02:54:23;;;;;;;4.95;1.67;;;9.20;99.90;;;9.12;100.00;100550.59;5225402;28;20552;-71
2022/11/25 02:56:56;;;;;;;6.88;1.65;;;9.20;99.90;;;9.14;100.00;100554.16;5226902;28;20409;-71
2022/11/25 02:59:28;;;;;;;8.57;1.92;;;9.30;99.90;;;9.17;100.00;100562.03;5225125;28;20044;-70
2022/11/25 03:02:01;;;;;;;5.50;1.83;;;9.30;99.90;;;9.19;100.00;100562.97;5225559;28;20052;-70
2022/11/25 03:04:34;;;;;;;8.55;2.10;;;9.30;99.90;;;9.21;100.00;100561.34;5225230;28;20052;-70
2022/11/25 03:07:08;;;;;;;6.30;1.63;;;9.30;99.90;;;9.22;100.00;100569.19;5226770;28;20114;-70
2022/11/25 03:09:40;;;;;;;4.05;1.45;;;9.30;99.90;;;9.27;100.00;100569.38;5225173;28;20045;-72
2022/11/25 03:12:20;;;;;;;6.10;1.85;;;9.40;99.90;;;9.26;100.00;100570.19;5225509;28;20103;-70
2022/11/25 03:14:52;;;;;;;7.80;1.58;;;9.40;99.90;;;9.28;100.00;100558.13;5226231;28;20033;-70
2022/11/25 03:17:26;;;;;;;4.88;1.52;;;9.40;99.90;;;9.29;100.00;100559.91;5225206;28;20052;-70
2022/11/25 03:19:59;;;;;;;9.45;2.58;;;9.40;99.90;;;9.30;100.00;100566.88;5225024;28;20406;-69
2022/11/25 03:22:31;;;;;;;7.53;2.05;;;9.40;99.90;;;9.28;100.00;100560.72;5224274;28;20065;-69
2022/11/25 03:25:04;;;;;;;10.48;1.70;;;9.40;99.90;;;9.34;100.00;100558.34;5226422;28;20065;-70
2022/11/25 03:27:39;;;;;;;5.18;1.50;;;9.50;99.90;;;9.36;100.00;100555.78;5224899;28;20045;-70
2022/11/25 03:30:15;;;;;;;5.15;1.50;;;9.50;99.90;;;9.39;100.00;100549.00;5224823;28;20045;-73
2022/11/25 03:32:49;;;;;;;5.68;1.90;;;9.50;99.90;;;9.37;100.00;100563.66;5224869;28;20055;-69
2022/11/25 03:35:22;;;;;;;7.00;1.80;;;9.50;99.90;;;9.41;100.00;100560.34;5225972;28;20418;-71
2022/11/25 03:37:54;;;;;;;4.07;1.50;;;9.50;99.90;;;9.45;100.00;100582.13;5224942;28;20044;-70
2022/11/25 03:40:26;;;;;;;4.35;1.45;;;9.60;99.90;;;9.50;100.00;100593.59;5225855;28;20060;-70
2022/11/25 03:43:01;;;;;;;5.30;1.67;;;9.50;99.90;;;9.51;100.00;100598.84;5224559;28;20045;-69
2022/11/25 03:45:33;;;;;;;5.20;1.55;;;9.60;99.90;;;9.56;100.00;100605.94;5224455;28;20041;-70
2022/11/25 03:48:09;;;;;;;4.85;1.30;;;9.60;99.90;;;9.56;100.00;100601.63;5224654;28;20095;-70
2022/11/25 03:50:42;;;;;;;4.03;1.52;;;9.60;99.90;;;9.60;100.00;100597.44;5224636;28;20049;-70
2022/11/25 03:53:15;;;;;;;6.85;1.10;;;9.60;99.90;;;9.60;100.00;100605.22;5226201;28;20059;-70
2022/11/25 03:55:49;;;;;;;3.17;1.15;;;9.70;99.90;;;9.62;100.00;100608.75;5224606;28;20044;-71
2022/11/25 03:58:24;;;;;;;3.88;1.40;;;9.70;99.90;;;9.63;100.00;100597.53;5224100;28;20048;-71
2022/11/25 04:01:01;;;;;;;4.35;1.50;;;9.70;99.90;;;9.62;100.00;100603.56;5224080;28;20047;-69
2022/11/25 04:03:33;;;;;;;3.55;1.20;;;9.70;99.90;;;9.64;100.00;100607.09;5224563;28;20041;-70
2022/11/25 04:06:05;;;;;;;4.35;1.50;;;9.70;99.90;;;9.66;100.00;100618.47;5225781;28;20045;-71
2022/11/25 04:08:38;;;;;;;5.30;1.42;;;9.70;99.90;;;9.67;100.00;100630.66;5224501;28;20136;-69
2022/11/25 04:11:11;;;;;;;2.80;1.30;;;9.70;99.90;;;9.67;100.00;100621.13;5223844;28;20512;-69
2022/11/25 04:13:48;;;;;;;4.40;1.70;;;9.70;99.90;;;9.68;100.00;100622.00;5224015;28;20547;-69
2022/11/25 04:16:25;;;;;;;2.25;1.05;;;9.70;99.90;;;9.69;100.00;100631.56;5224115;28;20044;-69
2022/11/25 04:18:58;;;;;;;3.00;1.40;;;9.70;99.90;;;9.68;100.00;100632.41;5223960;28;20057;-69
2022/11/25 04:21:31;;;;;;;3.92;1.52;;;9.70;99.90;;;9.67;100.00;100647.16;5223931;28;20049;-69
2022/11/25 04:24:04;;;;;;;5.32;1.63;;;9.70;99.90;;;9.68;100.00;100642.81;5224030;28;20126;-71
2022/11/25 04:26:38;;;;;;;6.53;1.83;;;9.70;99.90;;;9.65;100.00;100642.69;5223979;28;20141;-71
2022/11/25 04:29:11;;;;;;;4.40;1.77;;;9.70;99.90;;;9.63;100.00;100634.84;5223879;28;20461;-70
2022/11/25 04:31:44;;;;;;;7.68;1.63;;;9.70;99.90;;;9.64;100.00;100640.94;5223624;28;20053;-70
2022/11/25 04:34:17;;;;;;;5.00;1.73;;;9.70;99.90;;;9.60;100.00;100637.34;5224994;28;20048;-70
2022/11/25 04:36:52;;;;;;;7.53;2.40;;;9.70;99.90;;;9.56;100.00;100638.06;5223716;28;20090;-70
2022/11/25 04:42:31;;;;;;;7.05;2.90;;;9.60;99.90;;;9.51;100.00;100650.88;5159406;28;20513;-70
2022/11/25 04:45:10;;;;;;;12.85;5.38;;;9.60;99.90;;;9.49;100.00;100652.56;5162048;28;20431;-70
2022/11/25 04:47:44;;;;;;;10.55;3.78;;;9.60;99.90;;;9.47;100.00;100650.75;5161531;28;20054;-70
2022/11/25 04:50:20;;;;;;;9.38;3.00;;;9.50;99.90;;;9.44;100.00;100645.41;5162050;28;20462;-70
2022/11/25 04:53:06;;;;;;;7.10;2.22;;;9.50;99.90;;;9.41;100.00;100642.72;5161926;28;20051;-70
2022/11/25 04:55:38;;;;;;;9.38;2.30;;;9.50;99.90;;;9.36;100.00;100639.94;5162094;28;20064;-70
2022/11/25 04:59:38;;;;;;;5.80;1.77;;;9.50;99.90;;;9.33;100.00;100659.75;5161213;28;20525;-71
2022/11/25 05:01:10;;;;;;;5.60;1.90;;;9.40;99.90;;;9.29;100.00;100663.94;5161709;28;20038;-71
2022/11/25 05:03:46;;;;;;;4.75;2.00;;;9.40;99.90;;;9.25;100.00;100662.91;5161914;28;20204;-71
2022/11/25 05:06:18;;;;;;;6.28;2.17;;;9.40;99.90;;;9.24;100.00;100666.34;5177935;28;20410;-71
2022/11/25 05:08:51;;;;;;;3.58;1.70;;;9.30;99.90;;;9.20;100.00;100668.81;5161288;28;20046;-71
2022/11/25 05:11:25;;;;;;;8.05;2.05;;;9.30;99.90;;;9.18;100.00;100662.63;5161891;28;20054;-71
2022/11/25 05:13:57;;;;;;;9.15;2.63;;;9.30;99.90;;;9.15;100.00;100666.03;5161562;28;20042;-71
2022/11/25 05:16:31;;;;;;;7.05;2.38;;;9.30;99.90;;;9.13;100.00;100665.09;5161653;28;20050;-70
2022/11/25 05:19:04;;;;;;;7.22;2.50;;;9.30;99.90;;;9.12;100.00;100665.00;5161165;28;20093;-71
2022/11/25 05:21:36;;;;;;;10.50;2.50;;;9.20;99.90;;;9.10;100.00;100662.34;5164469;28;20044;-71
2022/11/25 05:24:08;;;;;;;4.30;2.40;;;9.20;99.90;;;9.09;100.00;100659.69;5181499;28;20140;-71
2022/11/25 05:26:42;;;;;;;6.10;2.63;;;9.20;99.90;;;9.07;100.00;100661.38;5181898;28;20144;-71
2022/11/25 05:29:14;;;;;;;5.70;2.70;;;9.20;99.90;;;9.03;100.00;100660.34;5181219;28;20128;-70
2022/11/25 05:31:48;;;;;;;6.00;2.40;;;9.20;99.90;;;9.03;100.00;100667.25;5181754;28;20046;-70
2022/11/25 05:34:20;;;;;;;5.22;2.25;;;9.20;99.90;;;9.04;100.00;100676.81;5181812;28;20054;-70
2022/11/25 05:36:53;;;;;;;5.03;2.20;;;9.10;99.90;;;9.04;100.00;100669.03;5181449;28;20046;-71
2022/11/25 05:39:25;;;;;;;5.47;2.38;;;9.10;99.90;;;9.03;100.00;100675.06;5181297;28;20227;-71
2022/11/25 05:42:29;;;;;;;;;;;9.10;99.90;;;9.02;100.00;100681.97;5181940;28;20056;-71
2022/11/25 05:45:04;;;;;;;4.93;2.25;;;9.10;99.90;;;9.01;100.00;100677.59;5182092;28;19928;-70
2022/11/25 05:47:39;;;;;;;5.20;1.85;;;9.10;99.90;;;9.00;100.00;100675.84;5185725;28;20092;-71
2022/11/25 05:50:12;;;;;;;5.40;2.30;;;9.10;99.90;;;8.96;100.00;100690.41;5185853;28;20052;-71
2022/11/25 05:52:45;;;;;;;6.32;2.20;;;9.10;99.90;;;8.95;100.00;100678.25;5187131;28;20041;-70
2022/11/25 05:55:17;;;;;;;6.40;2.25;;;9.00;99.90;;;8.94;100.00;100692.06;5185637;28;20565;-70
2022/11/25 05:57:52;;;;;;;9.82;1.90;;;9.10;99.90;;;8.94;100.00;100686.00;5185406;28;20045;-70
2022/11/25 06:00:24;;;;;;;7.45;2.45;;;9.00;99.90;;;8.94;100.00;100686.00;5185324;28;20479;-72
2022/11/25 06:03:00;;;;;;;9.15;2.85;;;9.00;99.90;;;8.93;100.00;100689.41;5185357;28;20045;-71
2022/11/25 06:05:35;;;;;;;6.72;2.67;;;9.10;99.90;;;8.92;100.00;100692.81;5185402;28;20046;-71
2022/11/25 06:08:08;;;;;;;8.25;3.47;;;9.00;99.90;;;8.90;100.00;100700.56;5185183;28;20458;-71
2022/11/25 06:10:42;;;;;;;7.35;2.42;;;9.00;99.90;;;8.87;100.00;100703.06;5185126;28;20045;-71
2022/11/25 06:13:14;;;;;;;6.70;2.70;;;9.00;99.90;;;8.86;100.00;100701.25;5185163;28;20050;-71
2022/11/25 06:15:47;;;;;;;5.95;2.30;;;9.00;99.90;;;8.85;100.00;100704.69;5185368;28;20077;-70
2022/11/25 06:18:24;;;;;;;7.43;2.17;;;9.00;99.90;;;8.86;100.00;100709.06;5184635;28;20137;-70
2022/11/25 06:20:57;;;;;;;7.35;2.55;;;9.00;99.90;;;8.86;100.00;100706.47;5185996;28;20434;-70
2022/11/25 06:23:30;;;;;;;5.30;2.00;;;9.00;99.90;;;8.88;100.00;100716.94;5184850;28;20050;-70
2022/11/25 06:26:08;;;;;;;4.97;2.30;;;9.00;99.90;;;8.88;100.00;100720.44;5184673;28;20054;-70
2022/11/25 06:28:41;;;;;;;9.98;2.72;;;9.00;99.90;;;8.88;100.00;100712.63;5184461;28;20133;-71
2022/11/25 06:31:17;;;;;;;8.00;2.95;;;9.00;99.90;;;8.85;100.00;100717.69;5184688;28;20050;-70
2022/11/25 06:34:02;;;;;;;6.68;2.40;;;8.90;99.90;;;8.83;100.00;100719.34;5184366;28;20127;-71
2022/11/25 06:36:35;;;;;;;6.32;2.85;;;8.90;99.90;;;8.84;100.00;100725.44;5185162;28;20265;-71
2022/11/25 06:39:07;;;;;;;6.88;2.70;;;8.90;99.90;;;8.84;100.00;100721.13;5185686;28;20414;-71
2022/11/25 06:41:40;;;;;;;9.25;2.55;;;9.00;99.90;;;8.86;100.00;100724.66;5185752;28;20503;-71
2022/11/25 06:44:13;;;;;;;5.80;2.45;;;9.00;99.90;;;8.86;100.00;100724.66;5185864;28;20133;-71
2022/11/25 06:46:45;;;;;;;8.82;3.22;;;9.00;99.90;;;8.85;100.00;100733.28;5185577;28;20052;-71
2022/11/25 06:49:19;;;;;;;7.63;3.20;;;8.90;99.90;;;8.85;100.00;100741.09;5183973;28;20060;-71
2022/11/25 06:51:51;;;;;;;9.02;3.00;;;8.90;99.90;;;8.86;100.00;100734.16;5185801;28;20558;-70
2022/11/25 06:54:23;;;;;;;9.27;3.20;;;9.00;99.90;;;8.85;100.00;100746.28;5185762;28;20076;-70
2022/11/25 06:56:55;;;;;;;6.13;2.60;;;8.90;99.90;;;8.86;100.00;100745.44;5184143;28;20144;-71
2022/11/25 06:59:27;;;;;;;10.10;2.95;;;9.00;99.90;;;8.86;100.00;100747.16;5185094;28;20049;-71
2022/11/25 07:01:59;;;;;;;7.30;2.30;;;9.00;99.90;;;8.86;100.00;100745.44;5183981;28;20410;-71
2022/11/25 07:04:34;;;;;;;7.70;2.42;;;8.90;99.90;;;8.87;100.00;100752.44;5185181;28;20049;-58
2022/11/25 07:07:07;;;;;;;6.85;2.30;;;9.00;99.90;;;8.89;100.00;100750.78;5185021;28;20418;-57
2022/11/25 07:09:39;;;;;;;9.65;2.28;;;8.90;99.90;;;8.90;100.00;100756.88;5184345;28;20060;-57
2022/11/25 07:12:12;;;;;;;5.53;2.15;;;9.00;99.90;;;8.92;100.00;100758.69;5185150;28;20406;-57
2022/11/25 07:14:44;;;;;;;6.43;2.33;;;9.00;99.90;;;8.91;100.00;100754.34;5184451;28;20212;-58
2022/11/25 07:17:16;;;;;;;4.70;2.10;;;9.00;99.90;;;8.91;100.00;100759.53;5184544;28;20434;-57
2022/11/25 07:19:49;;;;;;;6.35;2.10;;;9.00;99.90;;;8.88;100.00;100763.75;5184345;28;20046;-58
2022/11/25 07:22:21;;;;;;;7.45;2.53;;;9.00;99.90;;;8.89;100.00;100761.19;5184850;28;20490;-58
2022/11/25 07:24:53;;;;;;;7.28;2.13;;;9.00;99.90;;;8.89;100.00;100766.38;5184589;28;20045;-57
2022/11/25 07:27:25;;;;;;;6.30;2.40;;;9.00;99.90;;;8.91;100.00;100767.31;5184508;28;20048;-58
2022/11/25 07:29:57;;;;;;;4.88;2.10;;;9.00;99.90;;;8.93;100.00;100770.91;5184293;28;20037;-58
2022/11/25 07:32:33;;;;;;;9.30;2.20;;;9.00;99.90;;;8.92;100.00;100781.22;5184489;28;20057;-58
2022/11/25 07:35:08;;;;;;;10.10;2.63;;;9.00;99.90;;;8.90;100.00;100778.56;5184546;28;20049;-59
2022/11/25 07:37:40;;;;;;;6.63;2.28;;;9.00;99.90;;;8.89;100.00;100774.19;5184319;28;20054;-58
2022/11/25 07:40:13;;;;;;;5.28;2.20;;;9.00;99.90;;;8.88;100.00;100775.00;5182849;28;20042;-57
2022/11/25 07:42:45;;;;;;;4.15;1.65;;;9.00;99.90;;;8.89;100.00;100781.09;5184354;28;20411;-56
2022/11/25 07:45:17;;;;;;;4.82;1.83;;;9.00;99.90;;;8.89;100.00;100787.19;5184404;28;20410;-56
2022/11/25 07:47:51;;;;;;;4.57;1.67;;;9.00;99.90;;;8.91;100.00;100792.44;5182482;28;20507;-56
2022/11/25 07:50:24;;;;;;;4.88;1.77;;;9.00;99.90;;;8.91;100.00;100795.03;5184273;28;20100;-57
2022/11/25 07:52:56;;;;;;;4.72;1.67;;;9.00;99.90;;;8.93;100.00;100799.50;5184365;28;20112;-56
2022/11/25 07:55:28;;;;;;;3.72;1.92;;;9.00;99.90;;;8.95;100.00;100807.34;5183778;28;20053;-57
2022/11/25 07:58:00;;;;;;;3.47;1.75;;;9.00;99.90;;;8.96;100.00;100814.31;5183681;28;20049;-57
2022/11/25 08:00:33;;;;;;;4.57;2.20;;;9.00;99.90;;;8.97;100.00;100823.91;5183979;28;20046;-57
2022/11/25 08:03:05;;;;;;;5.22;2.03;;;9.00;99.90;;;8.98;100.00;100823.94;5184082;28;20419;-57
2022/11/25 08:05:38;;;;;;;5.00;2.03;;;9.10;99.90;;;9.04;100.00;100833.72;5183873;28;20052;-57
2022/11/25 08:08:10;;;;;;;4.60;1.92;;;9.10;99.90;;;9.13;100.00;100828.03;5182978;28;20410;-59
2022/11/25 08:10:42;;;;;;;4.18;1.85;;;9.20;99.90;;;9.22;100.00;100836.19;5183773;28;20458;-57
2022/11/25 08:13:14;;;;;;;5.55;2.05;;;9.20;99.90;;;9.31;100.00;100828.75;5184001;28;20071;-57
2022/11/25 08:15:46;;;;;;;4.80;2.00;;;9.30;99.90;;;9.40;100.00;100830.88;5172033;28;20411;-57
2022/11/25 08:18:18;;;;;;;5.95;2.60;;;9.40;99.90;;;9.45;100.00;100832.81;5161610;28;20042;-57
2022/11/25 08:20:52;;;;;;;7.40;2.10;;;9.40;99.90;;;9.48;100.00;100838.13;5163318;28;20052;-57
2022/11/25 08:23:24;;;;;;;7.95;2.42;;;9.50;99.90;;;9.48;100.00;100832.94;5163481;28;20136;-60
2022/11/25 08:25:56;;;;;;;6.85;2.10;;;9.50;99.90;;;9.48;100.00;100832.94;5163648;28;20058;-60
2022/11/25 08:28:28;;;;;;;5.93;2.20;;;9.50;99.90;;;9.47;100.00;100844.16;5163047;28;20053;-59
2022/11/25 08:31:04;;;;;;;3.50;1.55;;;9.50;99.90;;;9.47;100.00;100854.59;5163152;28;20117;-59
2022/11/25 08:33:37;;;;;;;4.60;1.83;;;9.50;99.90;;;9.45;100.00;100851.03;5163047;28;20046;-60
2022/11/25 08:36:11;;;;;;;3.95;1.67;;;9.50;99.90;;;9.45;100.00;100856.25;5163195;28;20060;-59
2022/11/25 08:38:44;;;;;;;4.40;1.80;;;9.50;99.90;;;9.47;100.00;100862.38;5162729;28;20132;-59
2022/11/25 08:41:20;;;;;;;6.95;2.33;;;9.50;99.90;;;9.48;100.00;100869.34;5162606;28;20052;-60
2022/11/25 08:43:52;;;;;;;3.55;2.13;;;9.50;99.90;;;9.50;100.00;100862.50;5163103;28;20050;-59
2022/11/25 08:46:27;;;;;;;4.32;2.20;;;9.50;99.90;;;9.54;100.00;100883.44;5159287;28;20808;-60
2022/11/25 08:49:00;;;;;;;4.68;2.00;;;9.60;99.90;;;9.57;100.00;100878.34;5169343;28;20064;-60
2022/11/25 08:51:36;;;;;;;4.32;2.10;;;9.60;99.90;;;9.62;100.00;100882.03;5164838;28;20045;-60
2022/11/25 08:54:09;;;;;;;9.18;2.70;;;9.60;99.90;;;9.65;100.00;100887.34;5180365;28;20048;-61
2022/11/25 08:56:42;;;;;;;5.50;2.35;;;9.70;99.90;;;9.67;100.00;100881.41;5174125;28;20046;-60
2022/11/25 08:59:14;;;;;;;6.03;2.03;;;9.70;99.90;;;9.71;100.00;100877.19;5173998;28;20129;-61
2022/11/25 09:01:46;;;;;;;9.20;2.28;;;9.70;99.90;;;9.74;100.00;100882.53;5179450;28;20037;-60
2022/11/25 09:04:18;;;;;;;9.07;2.55;;;9.80;99.90;;;9.76;100.00;100891.28;5175511;28;20053;-60
2022/11/25 09:06:52;;;;;;;7.85;2.90;;;9.80;99.90;;;9.77;100.00;100887.84;5171102;28;20058;-60
2022/11/25 09:09:24;;;;;;;7.53;2.95;;;9.80;99.90;;;9.78;100.00;100900.06;5177604;28;20410;-61
2022/11/25 09:11:56;;;;;;;8.40;3.30;;;9.80;99.90;;;9.83;100.00;100902.81;5180782;28;20041;-60
2022/11/25 09:14:28;;;;;;;7.10;2.97;;;9.90;99.90;;;9.85;100.00;100902.06;5175478;28;20060;-60
2022/11/25 09:17:00;;;;;;;6.43;2.70;;;9.90;99.90;;;9.94;100.00;100906.75;5176621;28;20725;-60
2022/11/25 09:19:33;;;;;;;7.18;2.38;;;10.00;99.90;;;10.05;100.00;100905.44;5175328;28;20065;-61
2022/11/25 09:22:07;;;;;;;5.85;2.10;;;10.00;99.90;;;10.18;100.00;100902.47;5180980;28;20042;-61
2022/11/25 09:24:40;;;;;;;5.28;2.22;;;10.10;99.90;;;10.30;100.00;100904.66;5168985;28;20423;-60
2022/11/25 09:27:12;;;;;;;6.63;1.85;;;10.20;99.90;;;10.42;100.00;100914.69;5176091;28;20038;-59
2022/11/25 09:29:44;;;;;;;5.70;2.30;;;10.30;99.90;;;10.54;100.00;100931.66;5179175;28;20054;-59
2022/11/25 09:32:16;;;;;;;4.10;1.75;;;10.40;99.90;;;10.67;100.00;100924.28;5177576;28;20472;-59
2022/11/25 09:34:49;;;;;;;5.82;1.85;;;10.50;99.90;;;10.81;100.00;100938.72;5165680;28;20145;-60
2022/11/25 09:37:22;;;;;;;5.82;2.15;;;10.70;99.90;;;10.91;100.00;100930.38;5172852;28;20670;-61
2022/11/25 09:39:55;;;;;;;4.35;1.80;;;10.70;99.90;;;11.03;100.00;100928.22;5163291;28;20057;-60
2022/11/25 09:48:54;;;;;;;5.00;2.38;;;11.10;99.90;;;11.43;100.00;100947.84;5163783;28;20512;-61
2022/11/25 09:51:36;;;;;;;4.50;2.38;;;11.20;99.90;;;11.53;100.00;100949.03;5163818;28;20053;-61
2022/11/25 09:54:16;;;;;;;4.50;2.10;;;11.30;99.90;;;11.63;100.00;100952.00;5166021;28;20046;-62
2022/11/25 09:56:53;;;;;;;6.82;2.42;;;11.40;99.90;;;11.73;100.00;100953.19;5165420;28;20051;-62
2022/11/25 09:59:34;;;;;;;4.32;2.00;;;11.50;99.90;;;11.75;100.00;100961.97;5166360;28;20057;-62
2022/11/25 10:02:26;;;;;;;5.28;1.90;;;11.60;99.90;;;11.80;100.00;100962.09;5166596;28;20042;-62
2022/11/25 10:05:07;;;;;;;4.90;1.73;;;11.60;99.90;;;11.90;100.00;100972.06;5166588;28;20125;-62
2022/11/25 10:07:44;;;;;;;3.65;1.70;;;11.70;99.90;;;12.02;100.00;100982.03;5165051;28;20054;-62
2022/11/25 10:10:22;;;;;;;2.60;1.40;;;11.80;99.90;;;12.15;100.00;100972.00;5166346;28;20496;-61
2022/11/25 10:12:57;;;;;;;2.95;1.90;;;11.90;99.90;;;12.26;100.00;100976.66;5166400;28;20050;-62
2022/11/25 10:15:35;;;;;;;4.78;1.50;;;12.00;99.90;;;12.37;100.00;100972.66;5166430;28;20141;-61
2022/11/25 10:18:19;;;;;;;3.17;1.60;;;12.10;99.90;;;12.45;100.00;100984.22;5166344;28;20487;-61
2022/11/25 10:20:52;;;;;;;2.40;1.30;;;12.20;99.90;;;12.52;100.00;100973.13;5166253;28;20061;-62
2022/11/25 10:23:30;;;;;;;4.70;1.70;;;12.30;99.90;;;12.59;100.00;100967.22;5166032;28;20396;-61
2022/11/25 10:26:13;;;;;;;3.38;1.20;;;12.30;99.90;;;12.72;100.00;100974.59;5166279;28;20054;-62
2022/11/25 10:28:55;;;;;;;2.25;1.23;;;12.40;99.90;;;12.84;100.00;100978.38;5166017;28;20109;-62
2022/11/25 10:31:35;;;;;;;3.08;1.33;;;12.60;99.90;;;12.94;100.00;100975.19;5165679;28;20050;-62
2022/11/25 10:34:16;;;;;;;5.20;1.67;;;12.70;99.90;;;13.03;100.00;100984.16;5178338;28;20395;-61
2022/11/25 10:36:50;;;;;;;4.57;1.90;;;12.80;99.90;;;13.00;100.00;100986.72;5173872;28;20046;-61
2022/11/25 10:39:26;;;;;;;4.53;1.73;;;12.80;99.90;;;13.06;100.00;100983.38;5166492;28;20418;-61
2022/11/25 10:42:06;;;;;;;2.95;1.50;;;12.80;99.90;;;13.16;100.00;101000.22;5271552;22;20060;-58
2022/11/25 10:44:40;;;;;;;3.35;1.50;;;12.90;99.90;;;13.22;100.00;100992.56;5212540;28;20045;-59
2022/11/25 10:47:30;;;;;;;4.32;1.30;;;13.00;99.90;;;13.22;100.00;100998.69;5207932;28;20505;-61
2022/11/25 10:50:17;;;;;;;3.45;1.40;;;13.00;99.90;;;13.27;100.00;101007.56;5227112;28;20045;-59
2022/11/25 10:52:57;;;;;;;4.38;1.38;;;13.00;99.90;;;13.33;100.00;101006.84;5227169;28;20052;-59
2022/11/25 10:55:31;;;;;;;2.13;1.40;;;13.00;99.90;;;13.43;100.00;101000.09;5227554;28;20049;-61
2022/11/25 10:58:29;;;;;;;5.22;1.52;;;13.10;99.90;;;13.60;100.00;101011.91;5226951;28;20090;-59
2022/11/25 11:01:14;;;;;;;4.20;1.40;;;13.30;99.90;;;13.78;100.00;101007.16;5226699;28;20045;-63